createdAt,value
2022-08-24T00:00:37.827Z,42.90
2022-08-24T00:03:07.241Z,38.30
2022-08-24T00:05:35.037Z,47.78
2022-08-24T00:08:02.869Z,39.15
2022-08-24T00:10:30.516Z,37.05
2022-08-24T00:12:58.578Z,41.13
2022-08-24T00:15:26.126Z,32.95
2022-08-24T00:17:53.648Z,38.42
2022-08-24T00:20:22.504Z,46.60
2022-08-24T00:22:50.486Z,46.17
2022-08-24T00:25:19.884Z,37.83
2022-08-24T00:27:48.128Z,31.33
2022-08-24T00:30:19.205Z,35.65
2022-08-24T00:32:48.362Z,42.25
2022-08-24T00:35:18.219Z,44.20
2022-08-24T00:37:48.325Z,36.90
2022-08-24T00:40:19.447Z,35.30
2022-08-24T00:42:47.918Z,34.80
2022-08-24T00:45:17.209Z,38.75
2022-08-24T00:47:48.146Z,46.38
2022-08-24T00:50:23.047Z,56.05
2022-08-24T00:52:56.647Z,55.20
2022-08-24T00:55:30.523Z,61.38
2022-08-24T00:58:02.309Z,60.83
2022-08-24T01:00:34.990Z,59.60
2022-08-24T01:03:06.833Z,62.40
2022-08-24T01:05:38.088Z,63.83
2022-08-24T01:08:08.938Z,65.57
2022-08-24T01:10:41.045Z,63.65
2022-08-24T01:13:12.135Z,47.10
2022-08-24T01:15:42.741Z,41.97
2022-08-24T01:18:33.527Z,41.60
2022-08-24T01:21:16.315Z,38.95
2022-08-24T01:23:47.938Z,33.83
2022-08-24T01:26:19.183Z,32.95
2022-08-24T01:28:50.148Z,37.95
2022-08-24T01:31:22.093Z,41.28
2022-08-24T01:33:51.328Z,38.83
2022-08-24T01:36:28.463Z,42.22
2022-08-24T01:39:02.167Z,45.00
2022-08-24T01:41:29.709Z,59.08
2022-08-24T01:43:58.933Z,44.20
2022-08-24T01:46:26.718Z,46.15
2022-08-24T01:48:54.324Z,46.78
2022-08-24T01:51:22.007Z,50.63
2022-08-24T01:53:49.899Z,46.70
2022-08-24T01:56:18.759Z,47.28
2022-08-24T01:58:47.272Z,51.40
2022-08-24T02:01:16.309Z,49.20
2022-08-24T02:03:44.040Z,43.25
2022-08-24T02:06:11.602Z,55.85
2022-08-24T02:08:39.783Z,54.15
2022-08-24T02:11:09.299Z,44.65
2022-08-24T02:13:39.145Z,41.50
2022-08-24T02:16:07.486Z,38.80
2022-08-24T02:18:35.430Z,42.03
2022-08-24T02:21:03.046Z,46.47
2022-08-24T02:23:30.693Z,41.60
2022-08-24T02:25:58.206Z,38.45
2022-08-24T02:28:25.711Z,38.22
2022-08-24T02:30:54.602Z,38.78
2022-08-24T02:33:23.546Z,39.47
2022-08-24T02:35:51.147Z,41.88
2022-08-24T02:38:18.711Z,38.92
2022-08-24T02:40:46.588Z,49.47
2022-08-24T02:43:14.250Z,48.63
2022-08-24T02:45:47.190Z,53.40
2022-08-24T02:48:19.567Z,61.78
2022-08-24T02:50:49.203Z,58.17
2022-08-24T02:53:18.810Z,49.38
2022-08-24T02:55:46.623Z,48.00
2022-08-24T02:58:15.709Z,43.20
2022-08-24T03:00:45.048Z,41.00
2022-08-24T03:03:13.052Z,37.95
2022-08-24T03:05:42.034Z,43.17
2022-08-24T03:08:09.537Z,37.42
2022-08-24T03:10:37.096Z,35.63
2022-08-24T03:13:05.233Z,37.80
2022-08-24T03:15:33.065Z,34.38
2022-08-24T03:18:00.747Z,39.78
2022-08-24T03:20:28.317Z,40.28
2022-08-24T03:22:57.313Z,43.65
2022-08-24T03:25:26.567Z,62.90
2022-08-24T03:27:54.802Z,66.28
2022-08-24T03:30:23.769Z,59.25
2022-08-24T03:32:52.449Z,49.55
2022-08-24T03:35:21.789Z,49.45
2022-08-24T03:37:49.421Z,51.58
2022-08-24T03:40:22.915Z,36.35
2022-08-24T03:42:52.906Z,36.50
2022-08-24T03:45:21.469Z,40.67
2022-08-24T03:47:49.389Z,35.97
2022-08-24T03:50:16.898Z,45.47
2022-08-24T03:52:44.403Z,41.70
2022-08-24T03:55:13.232Z,42.53
2022-08-24T03:57:42.126Z,36.67
2022-08-24T04:00:13.542Z,47.10
2022-08-24T04:02:41.118Z,62.63
2022-08-24T04:05:09.643Z,47.83
2022-08-24T04:07:37.130Z,50.13
2022-08-24T04:10:05.007Z,60.47
2022-08-24T04:12:32.507Z,61.95
2022-08-24T04:15:01.594Z,65.38
2022-08-24T04:17:30.267Z,64.15
2022-08-24T04:20:00.900Z,63.95
2022-08-24T04:22:30.473Z,65.78
2022-08-24T04:24:58.547Z,69.65
2022-08-24T04:27:26.160Z,63.63
2022-08-24T04:29:53.857Z,72.05
2022-08-24T04:32:22.696Z,68.45
2022-08-24T04:34:50.192Z,62.65
2022-08-24T04:37:18.351Z,78.07
2022-08-24T04:39:53.211Z,87.45
2022-08-24T04:42:20.911Z,78.57
2022-08-24T04:44:48.403Z,93.18
2022-08-24T04:47:15.929Z,115.97
2022-08-24T04:49:44.832Z,103.35
2022-08-24T04:52:12.381Z,66.18
2022-08-24T04:54:39.885Z,133.82
2022-08-24T04:57:07.397Z,144.63
2022-08-24T04:59:34.903Z,122.40
2022-08-24T05:02:02.475Z,117.15
2022-08-24T05:04:30.076Z,133.35
2022-08-24T05:07:00.182Z,136.35
2022-08-24T05:09:27.679Z,123.07
2022-08-24T05:11:55.571Z,112.13
2022-08-24T05:14:28.012Z,151.43
2022-08-24T05:16:56.297Z,80.13
2022-08-24T05:19:24.595Z,127.13
2022-08-24T05:21:52.570Z,58.60
2022-08-24T05:24:21.434Z,26.55
2022-08-24T05:26:48.990Z,27.00
2022-08-24T05:29:18.942Z,44.50
2022-08-24T05:31:47.363Z,51.25
2022-08-24T05:34:15.486Z,49.72
2022-08-24T05:36:43.893Z,32.00
2022-08-24T05:39:13.775Z,25.60
2022-08-24T05:41:45.271Z,29.83
2022-08-24T05:44:14.044Z,28.08
2022-08-24T05:46:41.702Z,30.48
2022-08-24T05:49:09.452Z,26.73
2022-08-24T05:51:37.663Z,24.90
2022-08-24T05:54:06.339Z,23.13
2022-08-24T05:56:33.840Z,16.63
2022-08-24T05:59:03.838Z,22.02
2022-08-24T06:01:31.558Z,19.25
2022-08-24T06:04:00.112Z,18.70
2022-08-24T06:06:28.231Z,21.25
2022-08-24T06:08:57.994Z,21.08
2022-08-24T06:11:30.764Z,17.40
2022-08-24T06:14:01.642Z,18.52
2022-08-24T06:16:30.951Z,16.40
2022-08-24T06:18:58.465Z,22.17
2022-08-24T06:21:28.702Z,15.98
2022-08-24T06:23:57.064Z,22.40
2022-08-24T06:26:42.282Z,14.23
2022-08-24T06:29:10.875Z,13.50
2022-08-24T06:31:42.377Z,22.05
2022-08-24T06:34:12.047Z,13.07
2022-08-24T06:36:40.231Z,10.63
2022-08-24T06:39:08.620Z,10.65
2022-08-24T06:41:38.140Z,10.15
2022-08-24T06:44:06.706Z,10.27
2022-08-24T06:46:36.207Z,12.07
2022-08-24T06:49:05.388Z,11.27
2022-08-24T06:51:33.426Z,11.55
2022-08-24T06:54:01.349Z,11.57
2022-08-24T06:56:28.873Z,11.45
2022-08-24T06:58:56.636Z,11.07
2022-08-24T07:01:26.011Z,9.70
2022-08-24T07:03:53.794Z,10.07
2022-08-24T07:06:23.143Z,9.45
2022-08-24T07:08:51.665Z,9.50
2022-08-24T07:11:21.980Z,8.63
2022-08-24T07:13:50.868Z,10.82
2022-08-24T07:16:20.125Z,11.38
2022-08-24T07:18:50.260Z,11.07
2022-08-24T07:21:19.455Z,11.00
2022-08-24T07:23:49.103Z,10.55
2022-08-24T07:26:21.793Z,9.73
2022-08-24T07:28:50.165Z,10.18
2022-08-24T07:31:17.807Z,14.27
2022-08-24T07:33:45.727Z,10.68
2022-08-24T07:36:17.055Z,10.60
2022-08-24T07:38:53.111Z,12.05
2022-08-24T07:41:56.649Z,11.32
2022-08-24T07:44:15.455Z,10.55
2022-08-24T07:46:43.658Z,9.60
2022-08-24T07:49:29.353Z,11.90
2022-08-24T07:51:59.880Z,12.15
2022-08-24T07:54:29.687Z,12.95
2022-08-24T07:56:59.958Z,11.73
2022-08-24T07:59:27.475Z,11.98
2022-08-24T08:01:55.028Z,11.93
2022-08-24T08:04:25.150Z,12.52
2022-08-24T08:06:52.733Z,11.95
2022-08-24T08:09:20.317Z,12.10
2022-08-24T08:11:49.296Z,12.48
2022-08-24T08:14:16.827Z,12.57
2022-08-24T08:16:44.384Z,12.55
2022-08-24T08:19:11.948Z,12.93
2022-08-24T08:22:00.547Z,16.45
2022-08-24T08:24:28.308Z,15.00
2022-08-24T08:26:59.233Z,12.48
2022-08-24T08:29:27.217Z,11.48
2022-08-24T08:31:55.500Z,10.98
2022-08-24T08:34:23.058Z,14.68
2022-08-24T08:36:51.242Z,12.88
2022-08-24T08:39:20.745Z,10.68
2022-08-24T08:42:14.904Z,11.23
2022-08-24T08:44:53.179Z,13.75
2022-08-24T08:47:45.550Z,14.43
2022-08-24T08:50:16.960Z,9.20
2022-08-24T08:53:25.454Z,10.23
2022-08-24T08:56:03.766Z,13.63
2022-08-24T08:58:57.692Z,13.82
2022-08-24T09:01:36.210Z,10.00
2022-08-24T09:04:35.198Z,11.88
2022-08-24T09:07:16.628Z,11.27
2022-08-24T09:10:20.954Z,10.63
2022-08-24T09:13:02.783Z,10.15
2022-08-24T09:15:45.695Z,9.07
2022-08-24T09:18:26.732Z,8.85
2022-08-24T09:21:10.227Z,12.80
2022-08-24T09:23:52.560Z,9.80
2022-08-24T09:26:27.408Z,11.35
2022-08-24T09:29:05.419Z,9.80
2022-08-24T09:31:50.977Z,8.40
2022-08-24T09:34:28.639Z,10.20
2022-08-24T09:37:04.561Z,11.10
2022-08-24T09:39:53.627Z,9.57
2022-08-24T09:42:50.773Z,12.57
2022-08-24T09:45:37.014Z,11.73
2022-08-24T09:48:34.104Z,8.38
2022-08-24T09:51:24.532Z,9.55
2022-08-24T09:54:24.594Z,9.38
2022-08-24T09:57:13.750Z,9.60
2022-08-24T09:59:59.385Z,7.88
2022-08-24T10:02:45.871Z,8.63
2022-08-24T10:05:27.071Z,10.30
2022-08-24T10:08:05.062Z,10.25
2022-08-24T10:10:42.710Z,9.50
2022-08-24T10:13:24.114Z,11.48
2022-08-24T10:16:07.250Z,10.93
2022-08-24T10:18:46.013Z,8.95
2022-08-24T10:21:24.634Z,7.60
2022-08-24T10:24:07.896Z,8.80
2022-08-24T10:26:49.935Z,7.88
2022-08-24T10:29:33.698Z,10.18
2022-08-24T10:32:15.129Z,9.52
2022-08-24T10:35:01.149Z,10.93
2022-08-24T10:38:33.857Z,6.93
2022-08-24T10:41:21.385Z,9.55
2022-08-24T10:44:08.668Z,9.23
2022-08-24T10:46:49.026Z,9.68
2022-08-24T10:49:57.790Z,7.18
2022-08-24T10:52:54.056Z,8.63
2022-08-24T10:55:26.687Z,8.15
2022-08-24T10:58:08.174Z,9.50
2022-08-24T11:00:36.202Z,9.13
2022-08-24T11:03:13.076Z,9.45
2022-08-24T11:05:47.886Z,8.75
2022-08-24T11:08:21.980Z,10.25
2022-08-24T11:11:08.958Z,7.25
2022-08-24T11:13:50.245Z,7.80
2022-08-24T11:16:25.344Z,7.38
2022-08-24T11:18:55.812Z,7.95
2022-08-24T11:21:37.130Z,8.15
2022-08-24T11:24:08.571Z,6.68
2022-08-24T11:26:53.666Z,6.55
2022-08-24T11:29:27.330Z,8.88
2022-08-24T11:31:55.019Z,7.50
2022-08-24T11:34:33.584Z,8.73
2022-08-24T11:37:01.348Z,8.38
2022-08-24T11:39:33.763Z,10.73
2022-08-24T11:42:12.754Z,8.70
2022-08-24T11:44:49.685Z,10.45
2022-08-24T11:47:45.111Z,9.45
2022-08-24T11:50:25.333Z,8.60
2022-08-24T11:53:03.835Z,8.77
2022-08-24T11:55:47.449Z,9.45
2022-08-24T11:58:28.108Z,8.63
2022-08-24T12:01:05.878Z,9.07
2022-08-24T12:03:51.885Z,10.25
2022-08-24T12:06:32.521Z,8.40
2022-08-24T12:09:07.017Z,9.20
2022-08-24T12:11:41.554Z,8.95
2022-08-24T12:14:17.409Z,8.98
2022-08-24T12:16:55.836Z,10.85
2022-08-24T12:19:28.470Z,8.68
2022-08-24T12:21:58.942Z,9.20
2022-08-24T12:24:32.046Z,8.30
2022-08-24T12:27:04.278Z,7.35
2022-08-24T12:29:37.650Z,9.23
2022-08-24T12:32:11.225Z,9.73
2022-08-24T12:34:50.054Z,8.65
2022-08-24T12:37:23.188Z,8.65
2022-08-24T12:39:58.458Z,8.90
2022-08-24T12:42:33.858Z,9.68
2022-08-24T12:45:06.716Z,10.13
2022-08-24T12:47:43.575Z,9.75
2022-08-24T12:50:14.946Z,9.93
2022-08-24T12:53:12.154Z,10.18
2022-08-24T12:55:58.392Z,10.45
2022-08-24T12:58:54.529Z,8.75
2022-08-24T13:01:29.568Z,9.95
2022-08-24T13:04:09.236Z,11.20
2022-08-24T13:06:43.527Z,8.75
2022-08-24T13:09:17.911Z,9.73
2022-08-24T13:11:45.546Z,9.48
2022-08-24T13:14:20.905Z,9.45
2022-08-24T13:16:52.775Z,10.13
2022-08-24T13:19:38.599Z,9.05
2022-08-24T13:22:38.333Z,10.40
2022-08-24T13:25:25.550Z,9.18
2022-08-24T13:28:08.410Z,11.32
2022-08-24T13:31:19.205Z,10.02
2022-08-24T13:33:49.751Z,9.77
2022-08-24T13:36:55.915Z,10.32
2022-08-24T13:39:47.325Z,7.85
2022-08-24T13:42:30.318Z,9.55
2022-08-24T13:45:22.868Z,9.38
2022-08-24T13:48:04.027Z,8.63
2022-08-24T13:50:37.839Z,8.60
2022-08-24T13:53:30.858Z,8.50
2022-08-24T13:56:33.716Z,10.48
2022-08-24T13:59:09.650Z,10.45
2022-08-24T14:01:49.761Z,10.43
2022-08-24T14:04:32.918Z,9.77
2022-08-24T14:07:07.715Z,8.65
2022-08-24T14:09:47.118Z,10.02
2022-08-24T14:12:35.278Z,10.15
2022-08-24T14:15:19.136Z,7.70
2022-08-24T14:17:54.078Z,8.18
2022-08-24T14:20:44.051Z,11.77
2022-08-24T14:23:27.869Z,14.48
2022-08-24T14:26:28.706Z,12.50
2022-08-24T14:29:31.583Z,12.70
2022-08-24T14:32:27.808Z,15.07
2022-08-24T14:35:04.244Z,18.85
2022-08-24T14:37:56.788Z,16.42
2022-08-24T14:40:35.047Z,16.92
2022-08-24T14:43:30.047Z,17.55
2022-08-24T14:46:12.215Z,17.13
2022-08-24T14:48:49.119Z,14.40
2022-08-24T14:51:34.975Z,16.85
2022-08-24T14:54:17.043Z,16.80
2022-08-24T14:56:56.922Z,15.82
2022-08-24T14:59:38.819Z,19.38
2022-08-24T15:02:43.939Z,15.52
2022-08-24T15:05:22.237Z,17.92
2022-08-24T15:07:56.956Z,16.73
2022-08-24T15:10:28.758Z,17.75
2022-08-24T15:13:03.525Z,17.58
2022-08-24T15:15:36.223Z,20.42
2022-08-24T15:18:15.622Z,17.02
2022-08-24T15:21:04.023Z,16.17
2022-08-24T15:23:46.463Z,20.98
2022-08-24T15:26:19.942Z,19.10
2022-08-24T15:28:56.569Z,19.70
2022-08-24T15:31:29.023Z,20.38
2022-08-24T15:34:00.156Z,18.75
2022-08-24T15:36:30.044Z,20.20
2022-08-24T15:38:58.040Z,19.25
2022-08-24T15:41:30.897Z,19.17
2022-08-24T15:44:00.998Z,18.48
2022-08-24T15:46:32.844Z,15.07
2022-08-24T15:49:05.374Z,21.70
2022-08-24T15:51:44.655Z,16.30
2022-08-24T15:54:30.007Z,15.35
2022-08-24T15:57:00.636Z,16.60
2022-08-24T15:59:31.772Z,18.33
2022-08-24T16:02:33.269Z,19.13
2022-08-24T16:05:14.331Z,20.60
2022-08-24T16:08:07.563Z,14.32
2022-08-24T16:10:39.116Z,19.65
2022-08-24T16:13:29.369Z,20.08
2022-08-24T16:16:03.440Z,17.05
2022-08-24T16:18:49.033Z,18.25
2022-08-24T16:21:22.374Z,18.95
2022-08-24T16:23:56.622Z,22.25
2022-08-24T16:26:28.965Z,19.65
2022-08-24T16:28:57.545Z,18.05
2022-08-24T16:31:45.151Z,14.52
2022-08-24T16:34:21.144Z,17.92
2022-08-24T16:36:50.607Z,18.15
2022-08-24T16:39:18.166Z,18.02
2022-08-24T16:41:45.751Z,21.90
2022-08-24T16:44:13.556Z,17.83
2022-08-24T16:46:41.363Z,20.75
2022-08-24T16:49:12.714Z,18.35
2022-08-24T16:51:45.156Z,18.05
2022-08-24T16:54:14.882Z,17.88
2022-08-24T16:56:43.117Z,18.95
2022-08-24T16:59:25.171Z,17.27
2022-08-24T17:01:52.741Z,19.48
2022-08-24T17:04:20.474Z,16.80
2022-08-24T17:06:49.766Z,18.38
2022-08-24T17:09:20.287Z,18.52
2022-08-24T17:11:48.023Z,17.92
2022-08-24T17:14:17.040Z,19.33
2022-08-24T17:16:44.809Z,18.42
2022-08-24T17:19:15.436Z,18.05
2022-08-24T17:21:45.538Z,21.40
2022-08-24T17:24:13.381Z,16.33
2022-08-24T17:26:44.937Z,18.70
2022-08-24T17:29:18.433Z,16.88
2022-08-24T17:31:49.721Z,17.52
2022-08-24T17:34:17.931Z,17.50
2022-08-24T17:36:46.183Z,19.20
2022-08-24T17:39:15.368Z,15.40
2022-08-24T17:41:44.607Z,15.07
2022-08-24T17:44:20.970Z,16.90
2022-08-24T17:46:50.352Z,16.33
2022-08-24T17:49:18.321Z,15.95
2022-08-24T17:51:45.939Z,15.68
2022-08-24T17:54:13.589Z,16.20
2022-08-24T17:56:41.460Z,15.98
2022-08-24T17:59:23.522Z,16.90
2022-08-24T18:01:52.187Z,18.63
2022-08-24T18:04:20.942Z,16.95
2022-08-24T18:06:49.372Z,15.60
2022-08-24T18:09:28.718Z,15.13
2022-08-24T18:11:57.455Z,16.35
2022-08-24T18:14:26.751Z,15.65
2022-08-24T18:16:57.364Z,16.20
2022-08-24T18:19:26.426Z,15.98
2022-08-24T18:21:54.299Z,15.77
2022-08-24T18:24:21.916Z,15.65
2022-08-24T18:26:50.238Z,19.40
2022-08-24T18:29:20.909Z,18.55
2022-08-24T18:31:50.454Z,17.33
2022-08-24T18:34:21.725Z,17.67
2022-08-24T18:36:49.638Z,17.42
2022-08-24T18:39:17.287Z,17.02
2022-08-24T18:41:49.203Z,18.95
2022-08-24T18:44:19.495Z,21.38
2022-08-24T18:46:47.817Z,21.20
2022-08-24T18:49:17.123Z,26.90
2022-08-24T18:51:45.234Z,22.63
2022-08-24T18:54:16.385Z,25.13
2022-08-24T18:56:45.256Z,40.35
2022-08-24T18:59:15.083Z,50.75
2022-08-24T19:02:01.675Z,67.22
2022-08-24T19:04:33.499Z,62.63
2022-08-24T19:07:01.613Z,81.68
2022-08-24T19:09:33.984Z,106.88
2022-08-24T19:12:02.348Z,93.95
2022-08-24T19:14:29.836Z,112.07
2022-08-24T19:16:57.722Z,94.68
2022-08-24T19:19:25.232Z,97.53
2022-08-24T19:21:54.980Z,83.97
2022-08-24T19:24:26.203Z,87.03
2022-08-24T19:26:54.009Z,119.78
2022-08-24T19:29:38.919Z,97.70
2022-08-24T19:32:22.047Z,101.45
2022-08-24T19:34:50.310Z,83.55
2022-08-24T19:37:19.655Z,53.28
2022-08-24T19:39:47.799Z,67.15
2022-08-24T19:42:17.162Z,58.08
2022-08-24T19:45:02.401Z,44.78
2022-08-24T19:47:34.208Z,42.10
2022-08-24T19:50:02.296Z,40.17
2022-08-24T19:52:33.559Z,44.75
2022-08-24T19:55:01.978Z,41.08
2022-08-24T19:57:36.281Z,40.85
2022-08-24T20:00:20.193Z,44.65
2022-08-24T20:02:48.955Z,41.25
2022-08-24T20:05:17.917Z,45.25
2022-08-24T20:07:47.717Z,45.83
2022-08-24T20:10:17.306Z,47.35
2022-08-24T20:12:44.834Z,43.47
2022-08-24T20:15:13.309Z,57.20
2022-08-24T20:17:41.410Z,59.92
2022-08-24T20:20:11.798Z,51.38
2022-08-24T20:22:39.395Z,51.20
2022-08-24T20:25:09.304Z,58.00
2022-08-24T20:27:37.356Z,52.10
2022-08-24T20:30:06.321Z,51.95
2022-08-24T20:32:33.859Z,66.18
2022-08-24T20:35:02.585Z,52.58
2022-08-24T20:37:32.828Z,48.92
2022-08-24T20:40:01.302Z,47.28
2022-08-24T20:42:31.627Z,41.70
2022-08-24T20:45:00.391Z,45.05
2022-08-24T20:47:28.154Z,41.10
2022-08-24T20:49:55.976Z,44.50
2022-08-24T20:52:23.467Z,44.25
2022-08-24T20:54:50.972Z,36.97
2022-08-24T20:57:21.399Z,43.20
2022-08-24T20:59:50.237Z,39.15
2022-08-24T21:02:17.751Z,48.88
2022-08-24T21:04:45.446Z,44.20
2022-08-24T21:07:13.500Z,39.78
2022-08-24T21:09:41.236Z,45.25
2022-08-24T21:12:09.221Z,49.95
2022-08-24T21:14:36.758Z,41.33
2022-08-24T21:17:06.736Z,41.10
2022-08-24T21:19:34.404Z,39.08
2022-08-24T21:22:02.147Z,43.13
2022-08-24T21:24:29.666Z,47.00
2022-08-24T21:26:57.187Z,38.45
2022-08-24T21:29:24.701Z,44.92
2022-08-24T21:32:10.098Z,41.97
2022-08-24T21:34:41.860Z,40.83
2022-08-24T21:37:10.579Z,38.10
2022-08-24T21:39:38.382Z,38.60
2022-08-24T21:42:06.470Z,39.03
2022-08-24T21:44:34.144Z,37.13
2022-08-24T21:47:03.627Z,37.45
2022-08-24T21:49:31.294Z,40.45
2022-08-24T21:52:00.128Z,39.55
2022-08-24T21:54:27.675Z,38.08
2022-08-24T21:56:55.262Z,36.58
2022-08-24T21:59:22.923Z,36.17
2022-08-24T22:01:50.478Z,38.58
2022-08-24T22:04:18.194Z,38.30
2022-08-24T22:06:45.791Z,37.72
2022-08-24T22:09:14.872Z,38.33
2022-08-24T22:11:42.716Z,38.00
2022-08-24T22:14:10.355Z,38.13
2022-08-24T22:16:38.043Z,43.20
2022-08-24T22:19:05.875Z,42.25
2022-08-24T22:21:36.176Z,37.65
2022-08-24T22:24:04.738Z,44.00
2022-08-24T22:26:34.142Z,44.45
2022-08-24T22:29:02.433Z,41.30
2022-08-24T22:31:32.833Z,44.17
2022-08-24T22:34:02.862Z,43.08
2022-08-24T22:36:30.910Z,43.50
2022-08-24T22:38:59.805Z,50.08
2022-08-24T22:41:28.140Z,44.83
2022-08-24T22:44:19.864Z,38.17
2022-08-24T22:46:47.844Z,42.13
2022-08-24T22:49:15.573Z,51.53
2022-08-24T22:51:43.793Z,46.40
2022-08-24T22:54:11.972Z,42.58
2022-08-24T22:56:42.816Z,47.15
2022-08-24T22:59:15.995Z,44.70
2022-08-24T23:01:45.726Z,46.80
2022-08-24T23:04:15.712Z,50.95
2022-08-24T23:06:43.681Z,47.28
2022-08-24T23:09:12.029Z,50.85
2022-08-24T23:11:40.126Z,53.05
2022-08-24T23:14:09.037Z,49.00
2022-08-24T23:16:40.671Z,50.85
2022-08-24T23:19:26.515Z,46.30
2022-08-24T23:21:54.774Z,47.63
2022-08-24T23:24:23.066Z,60.63
2022-08-24T23:26:50.983Z,54.40
2022-08-24T23:29:18.980Z,50.47
2022-08-24T23:31:48.766Z,62.10
2022-08-24T23:34:17.397Z,51.80
2022-08-24T23:36:45.961Z,60.45
2022-08-24T23:39:14.407Z,56.97
2022-08-24T23:41:44.202Z,57.42
2022-08-24T23:44:16.260Z,51.53
2022-08-24T23:46:45.258Z,39.60
2022-08-24T23:49:16.743Z,58.00
2022-08-24T23:51:44.289Z,62.47
2022-08-24T23:54:12.319Z,69.07
2022-08-24T23:56:43.166Z,60.45
2022-08-24T23:59:13.815Z,55.47
